sensor_id;sensor_type;location;lat;lon;timestamp;P1;durP1;ratioP1;P2;durP2;ratioP2
76550;SDS011;65393;53.160;18.170;2023-03-14T00:00:56;9.20;;;3.90;;
76550;SDS011;65393;53.160;18.170;2023-03-14T00:03:23;11.70;;;4.70;;
76550;SDS011;65393;53.160;18.170;2023-03-14T00:05:50;10.10;;;4.50;;
76550;SDS011;65393;53.160;18.170;2023-03-14T00:08:16;11.60;;;4.10;;
76550;SDS011;65393;53.160;18.170;2023-03-14T00:10:44;12.70;;;5.00;;
76550;SDS011;65393;53.160;18.170;2023-03-14T00:13:10;11.20;;;4.40;;
76550;SDS011;65393;53.160;18.170;2023-03-14T00:15:37;11.60;;;4.90;;
76550;SDS011;65393;53.160;18.170;2023-03-14T00:18:04;10.10;;;4.10;;
76550;SDS011;65393;53.160;18.170;2023-03-14T00:20:30;10.90;;;4.90;;
76550;SDS011;65393;53.160;18.170;2023-03-14T00:22:57;14.90;;;4.70;;
76550;SDS011;65393;53.160;18.170;2023-03-14T00:25:24;13.00;;;5.20;;
76550;SDS011;65393;53.160;18.170;2023-03-14T00:27:51;11.80;;;4.60;;
76550;SDS011;65393;53.160;18.170;2023-03-14T00:30:18;10.50;;;4.60;;
76550;SDS011;65393;53.160;18.170;2023-03-14T00:32:47;11.20;;;4.70;;
76550;SDS011;65393;53.160;18.170;2023-03-14T00:35:14;9.60;;;4.20;;
76550;SDS011;65393;53.160;18.170;2023-03-14T00:37:41;10.50;;;4.20;;
76550;SDS011;65393;53.160;18.170;2023-03-14T00:40:08;10.70;;;4.10;;
76550;SDS011;65393;53.160;18.170;2023-03-14T00:42:36;11.40;;;4.70;;
76550;SDS011;65393;53.160;18.170;2023-03-14T00:45:03;8.50;;;3.80;;
76550;SDS011;65393;53.160;18.170;2023-03-14T00:47:30;8.30;;;3.90;;
76550;SDS011;65393;53.160;18.170;2023-03-14T00:49:57;13.40;;;5.00;;
76550;SDS011;65393;53.160;18.170;2023-03-14T00:52:23;11.60;;;3.90;;
76550;SDS011;65393;53.160;18.170;2023-03-14T00:54:50;8.30;;;4.20;;
76550;SDS011;65393;53.160;18.170;2023-03-14T00:57:17;8.70;;;4.20;;
76550;SDS011;65393;53.160;18.170;2023-03-14T00:59:44;8.90;;;3.80;;
76550;SDS011;65393;53.160;18.170;2023-03-14T01:02:10;9.40;;;3.70;;
76550;SDS011;65393;53.160;18.170;2023-03-14T01:04:37;13.60;;;5.40;;
76550;SDS011;65393;53.160;18.170;2023-03-14T01:07:05;17.30;;;6.00;;
76550;SDS011;65393;53.160;18.170;2023-03-14T01:09:32;8.30;;;3.80;;
76550;SDS011;65393;53.160;18.170;2023-03-14T01:11:59;9.30;;;3.90;;
76550;SDS011;65393;53.160;18.170;2023-03-14T01:14:25;10.50;;;3.20;;
76550;SDS011;65393;53.160;18.170;2023-03-14T01:16:52;7.40;;;3.10;;
76550;SDS011;65393;53.160;18.170;2023-03-14T01:19:20;5.70;;;2.60;;
76550;SDS011;65393;53.160;18.170;2023-03-14T01:21:47;3.90;;;2.50;;
76550;SDS011;65393;53.160;18.170;2023-03-14T01:24:13;4.50;;;2.50;;
76550;SDS011;65393;53.160;18.170;2023-03-14T01:26:40;5.20;;;2.50;;
76550;SDS011;65393;53.160;18.170;2023-03-14T01:29:07;4.50;;;2.20;;
76550;SDS011;65393;53.160;18.170;2023-03-14T01:31:35;4.30;;;2.60;;
76550;SDS011;65393;53.160;18.170;2023-03-14T01:34:02;3.60;;;1.90;;
76550;SDS011;65393;53.160;18.170;2023-03-14T01:36:29;3.90;;;2.10;;
76550;SDS011;65393;53.160;18.170;2023-03-14T01:38:55;4.10;;;2.10;;
76550;SDS011;65393;53.160;18.170;2023-03-14T01:41:24;3.70;;;2.00;;
76550;SDS011;65393;53.160;18.170;2023-03-14T01:43:53;5.20;;;2.20;;
76550;SDS011;65393;53.160;18.170;2023-03-14T01:46:22;5.50;;;2.30;;
76550;SDS011;65393;53.160;18.170;2023-03-14T01:49:43;5.60;;;2.60;;
76550;SDS011;65393;53.160;18.170;2023-03-14T01:52:01;2.90;;;2.10;;
76550;SDS011;65393;53.160;18.170;2023-03-14T01:54:50;2.60;;;2.00;;
76550;SDS011;65393;53.160;18.170;2023-03-14T01:58:00;4.40;;;2.00;;
76550;SDS011;65393;53.160;18.170;2023-03-14T02:00:30;3.00;;;1.70;;
76550;SDS011;65393;53.160;18.170;2023-03-14T02:03:02;5.70;;;2.20;;
76550;SDS011;65393;53.160;18.170;2023-03-14T02:05:35;4.90;;;2.00;;
76550;SDS011;65393;53.160;18.170;2023-03-14T02:08:11;2.80;;;2.00;;
76550;SDS011;65393;53.160;18.170;2023-03-14T02:10:48;2.80;;;1.70;;
76550;SDS011;65393;53.160;18.170;2023-03-14T02:13:20;2.70;;;1.70;;
76550;SDS011;65393;53.160;18.170;2023-03-14T02:15:53;2.80;;;1.80;;
76550;SDS011;65393;53.160;18.170;2023-03-14T02:18:43;3.60;;;1.60;;
76550;SDS011;65393;53.160;18.170;2023-03-14T02:24:26;6.30;;;1.60;;
76550;SDS011;65393;53.160;18.170;2023-03-14T02:32:27;4.30;;;1.50;;
76550;SDS011;65393;53.160;18.170;2023-03-14T02:34:58;3.00;;;1.40;;
76550;SDS011;65393;53.160;18.170;2023-03-14T02:37:28;3.60;;;1.50;;
76550;SDS011;65393;53.160;18.170;2023-03-14T02:40:03;5.50;;;2.10;;
76550;SDS011;65393;53.160;18.170;2023-03-14T02:42:32;2.60;;;1.60;;
76550;SDS011;65393;53.160;18.170;2023-03-14T02:45:01;3.80;;;1.20;;
76550;SDS011;65393;53.160;18.170;2023-03-14T02:47:48;2.00;;;1.30;;
76550;SDS011;65393;53.160;18.170;2023-03-14T02:50:21;2.80;;;1.20;;
76550;SDS011;65393;53.160;18.170;2023-03-14T02:52:51;1.50;;;1.10;;
76550;SDS011;65393;53.160;18.170;2023-03-14T02:55:21;1.30;;;1.00;;
76550;SDS011;65393;53.160;18.170;2023-03-14T02:57:50;2.40;;;1.20;;
76550;SDS011;65393;53.160;18.170;2023-03-14T03:00:17;1.80;;;1.10;;
76550;SDS011;65393;53.160;18.170;2023-03-14T03:02:44;2.00;;;1.00;;
76550;SDS011;65393;53.160;18.170;2023-03-14T03:05:14;2.60;;;1.10;;
76550;SDS011;65393;53.160;18.170;2023-03-14T03:07:41;4.60;;;1.10;;
76550;SDS011;65393;53.160;18.170;2023-03-14T03:10:08;1.60;;;1.10;;
76550;SDS011;65393;53.160;18.170;2023-03-14T03:12:35;2.80;;;0.90;;
76550;SDS011;65393;53.160;18.170;2023-03-14T03:15:02;1.00;;;0.90;;
76550;SDS011;65393;53.160;18.170;2023-03-14T03:17:29;1.50;;;1.10;;
76550;SDS011;65393;53.160;18.170;2023-03-14T03:19:56;1.20;;;0.80;;
76550;SDS011;65393;53.160;18.170;2023-03-14T03:22:23;1.30;;;0.80;;
76550;SDS011;65393;53.160;18.170;2023-03-14T03:24:50;2.80;;;1.00;;
76550;SDS011;65393;53.160;18.170;2023-03-14T03:27:16;1.00;;;0.70;;
76550;SDS011;65393;53.160;18.170;2023-03-14T03:29:43;0.80;;;0.70;;
76550;SDS011;65393;53.160;18.170;2023-03-14T03:32:10;1.30;;;0.50;;
76550;SDS011;65393;53.160;18.170;2023-03-14T03:34:37;1.40;;;1.10;;
76550;SDS011;65393;53.160;18.170;2023-03-14T03:37:04;2.40;;;1.40;;
76550;SDS011;65393;53.160;18.170;2023-03-14T03:39:33;2.60;;;1.90;;
76550;SDS011;65393;53.160;18.170;2023-03-14T03:42:00;7.70;;;3.20;;
76550;SDS011;65393;53.160;18.170;2023-03-14T03:44:27;6.70;;;3.00;;
76550;SDS011;65393;53.160;18.170;2023-03-14T03:46:53;3.00;;;1.30;;
76550;SDS011;65393;53.160;18.170;2023-03-14T03:49:20;6.00;;;2.00;;
76550;SDS011;65393;53.160;18.170;2023-03-14T03:51:47;26.60;;;9.20;;
76550;SDS011;65393;53.160;18.170;2023-03-14T03:54:14;22.60;;;7.20;;
76550;SDS011;65393;53.160;18.170;2023-03-14T03:56:41;11.30;;;4.30;;
76550;SDS011;65393;53.160;18.170;2023-03-14T03:59:07;6.80;;;4.20;;
76550;SDS011;65393;53.160;18.170;2023-03-14T04:01:34;4.50;;;2.10;;
76550;SDS011;65393;53.160;18.170;2023-03-14T04:04:01;3.30;;;1.90;;
76550;SDS011;65393;53.160;18.170;2023-03-14T04:06:28;3.00;;;1.40;;
76550;SDS011;65393;53.160;18.170;2023-03-14T04:08:57;2.90;;;1.60;;
76550;SDS011;65393;53.160;18.170;2023-03-14T04:11:45;1.70;;;0.90;;
76550;SDS011;65393;53.160;18.170;2023-03-14T04:14:34;1.50;;;1.00;;
76550;SDS011;65393;53.160;18.170;2023-03-14T04:17:09;1.80;;;1.00;;
76550;SDS011;65393;53.160;18.170;2023-03-14T04:19:36;2.50;;;1.60;;
76550;SDS011;65393;53.160;18.170;2023-03-14T04:22:02;5.10;;;1.60;;
76550;SDS011;65393;53.160;18.170;2023-03-14T04:24:34;2.20;;;1.20;;
76550;SDS011;65393;53.160;18.170;2023-03-14T04:27:01;2.30;;;1.50;;
76550;SDS011;65393;53.160;18.170;2023-03-14T04:29:27;2.10;;;1.00;;
76550;SDS011;65393;53.160;18.170;2023-03-14T04:31:54;2.10;;;1.20;;
76550;SDS011;65393;53.160;18.170;2023-03-14T04:34:21;2.10;;;1.20;;
76550;SDS011;65393;53.160;18.170;2023-03-14T04:36:52;2.60;;;1.40;;
76550;SDS011;65393;53.160;18.170;2023-03-14T04:39:23;1.60;;;1.20;;
76550;SDS011;65393;53.160;18.170;2023-03-14T04:41:56;2.60;;;1.50;;
76550;SDS011;65393;53.160;18.170;2023-03-14T04:44:23;1.90;;;1.30;;
76550;SDS011;65393;53.160;18.170;2023-03-14T04:46:52;2.10;;;1.20;;
76550;SDS011;65393;53.160;18.170;2023-03-14T04:49:19;3.70;;;1.80;;
76550;SDS011;65393;53.160;18.170;2023-03-14T04:51:46;1.90;;;1.60;;
76550;SDS011;65393;53.160;18.170;2023-03-14T04:54:13;2.40;;;1.20;;
76550;SDS011;65393;53.160;18.170;2023-03-14T04:56:40;4.20;;;1.90;;
76550;SDS011;65393;53.160;18.170;2023-03-14T04:59:08;2.70;;;1.60;;
76550;SDS011;65393;53.160;18.170;2023-03-14T05:01:36;3.10;;;1.40;;
76550;SDS011;65393;53.160;18.170;2023-03-14T05:04:22;4.00;;;2.40;;
76550;SDS011;65393;53.160;18.170;2023-03-14T05:07:09;3.80;;;2.60;;
76550;SDS011;65393;53.160;18.170;2023-03-14T05:10:02;3.10;;;2.00;;
76550;SDS011;65393;53.160;18.170;2023-03-14T05:12:48;2.50;;;1.60;;
76550;SDS011;65393;53.160;18.170;2023-03-14T05:15:33;4.20;;;2.30;;
76550;SDS011;65393;53.160;18.170;2023-03-14T05:18:30;14.90;;;7.50;;
76550;SDS011;65393;53.160;18.170;2023-03-14T05:21:08;27.30;;;11.20;;
76550;SDS011;65393;53.160;18.170;2023-03-14T05:24:10;53.40;;;22.10;;
76550;SDS011;65393;53.160;18.170;2023-03-14T05:26:55;22.40;;;7.90;;
76550;SDS011;65393;53.160;18.170;2023-03-14T05:29:38;10.40;;;2.90;;
76550;SDS011;65393;53.160;18.170;2023-03-14T05:32:25;8.10;;;3.30;;
76550;SDS011;65393;53.160;18.170;2023-03-14T05:35:14;7.00;;;3.80;;
76550;SDS011;65393;53.160;18.170;2023-03-14T05:38:05;4.90;;;2.00;;
76550;SDS011;65393;53.160;18.170;2023-03-14T05:40:41;10.00;;;2.50;;
76550;SDS011;65393;53.160;18.170;2023-03-14T05:43:21;10.30;;;5.20;;
76550;SDS011;65393;53.160;18.170;2023-03-14T05:45:55;19.80;;;8.40;;
76550;SDS011;65393;53.160;18.170;2023-03-14T05:48:41;10.50;;;3.70;;
76550;SDS011;65393;53.160;18.170;2023-03-14T05:51:07;4.20;;;2.50;;
76550;SDS011;65393;53.160;18.170;2023-03-14T05:53:57;5.10;;;2.80;;
76550;SDS011;65393;53.160;18.170;2023-03-14T05:56:50;3.90;;;2.40;;
76550;SDS011;65393;53.160;18.170;2023-03-14T05:59:29;9.50;;;5.90;;
76550;SDS011;65393;53.160;18.170;2023-03-14T06:01:59;7.00;;;4.20;;
76550;SDS011;65393;53.160;18.170;2023-03-14T06:04:27;15.90;;;5.80;;
76550;SDS011;65393;53.160;18.170;2023-03-14T06:06:56;11.80;;;4.50;;
76550;SDS011;65393;53.160;18.170;2023-03-14T06:09:23;9.50;;;3.00;;
76550;SDS011;65393;53.160;18.170;2023-03-14T06:11:50;7.70;;;3.20;;
76550;SDS011;65393;53.160;18.170;2023-03-14T06:14:17;6.50;;;3.30;;
76550;SDS011;65393;53.160;18.170;2023-03-14T06:16:46;5.70;;;3.10;;
76550;SDS011;65393;53.160;18.170;2023-03-14T06:19:16;6.10;;;2.80;;
76550;SDS011;65393;53.160;18.170;2023-03-14T06:21:43;6.10;;;3.50;;
76550;SDS011;65393;53.160;18.170;2023-03-14T06:24:10;8.70;;;3.90;;
76550;SDS011;65393;53.160;18.170;2023-03-14T06:26:41;6.60;;;3.60;;
76550;SDS011;65393;53.160;18.170;2023-03-14T06:29:09;8.10;;;4.40;;
76550;SDS011;65393;53.160;18.170;2023-03-14T06:31:37;11.90;;;4.30;;
76550;SDS011;65393;53.160;18.170;2023-03-14T06:34:05;10.90;;;4.10;;
76550;SDS011;65393;53.160;18.170;2023-03-14T06:36:32;10.80;;;3.90;;
76550;SDS011;65393;53.160;18.170;2023-03-14T06:38:58;10.90;;;4.90;;
76550;SDS011;65393;53.160;18.170;2023-03-14T06:41:26;9.50;;;3.90;;
76550;SDS011;65393;53.160;18.170;2023-03-14T06:43:53;9.10;;;3.40;;
76550;SDS011;65393;53.160;18.170;2023-03-14T06:46:20;8.20;;;3.80;;
76550;SDS011;65393;53.160;18.170;2023-03-14T06:48:47;8.00;;;3.80;;
76550;SDS011;65393;53.160;18.170;2023-03-14T06:51:14;8.60;;;4.30;;
76550;SDS011;65393;53.160;18.170;2023-03-14T06:53:41;7.80;;;4.00;;
76550;SDS011;65393;53.160;18.170;2023-03-14T06:56:08;7.20;;;3.40;;
76550;SDS011;65393;53.160;18.170;2023-03-14T06:58:36;5.70;;;3.20;;
76550;SDS011;65393;53.160;18.170;2023-03-14T07:01:04;6.70;;;3.30;;
76550;SDS011;65393;53.160;18.170;2023-03-14T07:03:36;7.40;;;3.80;;
76550;SDS011;65393;53.160;18.170;2023-03-14T07:06:04;7.30;;;3.50;;
76550;SDS011;65393;53.160;18.170;2023-03-14T07:08:33;7.30;;;3.50;;
76550;SDS011;65393;53.160;18.170;2023-03-14T07:11:00;7.10;;;3.50;;
76550;SDS011;65393;53.160;18.170;2023-03-14T07:13:28;7.80;;;3.70;;
76550;SDS011;65393;53.160;18.170;2023-03-14T07:16:01;8.50;;;4.40;;
76550;SDS011;65393;53.160;18.170;2023-03-14T07:18:28;13.80;;;5.80;;
76550;SDS011;65393;53.160;18.170;2023-03-14T07:20:55;8.30;;;4.10;;
76550;SDS011;65393;53.160;18.170;2023-03-14T07:23:22;8.80;;;4.30;;
76550;SDS011;65393;53.160;18.170;2023-03-14T07:25:51;7.40;;;4.00;;
76550;SDS011;65393;53.160;18.170;2023-03-14T07:28:20;4.60;;;3.10;;
76550;SDS011;65393;53.160;18.170;2023-03-14T07:30:50;6.70;;;3.50;;
76550;SDS011;65393;53.160;18.170;2023-03-14T07:33:30;5.60;;;2.70;;
76550;SDS011;65393;53.160;18.170;2023-03-14T07:35:57;6.90;;;2.70;;
76550;SDS011;65393;53.160;18.170;2023-03-14T07:38:24;6.40;;;3.00;;
76550;SDS011;65393;53.160;18.170;2023-03-14T07:41:26;7.90;;;3.20;;
76550;SDS011;65393;53.160;18.170;2023-03-14T07:44:11;6.20;;;2.70;;
76550;SDS011;65393;53.160;18.170;2023-03-14T07:46:38;7.10;;;3.80;;
76550;SDS011;65393;53.160;18.170;2023-03-14T07:49:05;7.00;;;4.50;;
76550;SDS011;65393;53.160;18.170;2023-03-14T07:51:31;8.30;;;3.60;;
76550;SDS011;65393;53.160;18.170;2023-03-14T07:53:58;8.50;;;3.40;;
76550;SDS011;65393;53.160;18.170;2023-03-14T07:56:25;5.40;;;2.60;;
76550;SDS011;65393;53.160;18.170;2023-03-14T07:58:52;7.10;;;3.30;;
76550;SDS011;65393;53.160;18.170;2023-03-14T08:01:18;4.50;;;2.70;;
76550;SDS011;65393;53.160;18.170;2023-03-14T08:03:45;4.70;;;2.60;;
76550;SDS011;65393;53.160;18.170;2023-03-14T08:06:12;6.80;;;3.40;;
76550;SDS011;65393;53.160;18.170;2023-03-14T08:08:38;7.40;;;3.80;;
76550;SDS011;65393;53.160;18.170;2023-03-14T08:11:06;10.20;;;4.80;;
76550;SDS011;65393;53.160;18.170;2023-03-14T08:13:37;7.70;;;3.70;;
76550;SDS011;65393;53.160;18.170;2023-03-14T08:16:04;4.90;;;3.10;;
76550;SDS011;65393;53.160;18.170;2023-03-14T08:18:32;7.90;;;3.40;;
76550;SDS011;65393;53.160;18.170;2023-03-14T08:20:59;4.20;;;2.90;;
76550;SDS011;65393;53.160;18.170;2023-03-14T08:23:25;4.70;;;3.20;;
76550;SDS011;65393;53.160;18.170;2023-03-14T08:25:52;5.90;;;2.70;;
76550;SDS011;65393;53.160;18.170;2023-03-14T08:28:19;4.10;;;2.30;;
76550;SDS011;65393;53.160;18.170;2023-03-14T08:30:46;5.20;;;2.90;;
76550;SDS011;65393;53.160;18.170;2023-03-14T08:33:12;6.00;;;2.80;;
76550;SDS011;65393;53.160;18.170;2023-03-14T08:35:39;5.90;;;2.70;;
76550;SDS011;65393;53.160;18.170;2023-03-14T08:38:06;3.10;;;2.20;;
76550;SDS011;65393;53.160;18.170;2023-03-14T08:40:33;4.80;;;2.80;;
76550;SDS011;65393;53.160;18.170;2023-03-14T08:42:59;4.20;;;2.60;;
76550;SDS011;65393;53.160;18.170;2023-03-14T08:45:26;4.30;;;3.20;;
76550;SDS011;65393;53.160;18.170;2023-03-14T08:47:53;5.90;;;2.30;;
76550;SDS011;65393;53.160;18.170;2023-03-14T08:50:20;5.20;;;2.60;;
76550;SDS011;65393;53.160;18.170;2023-03-14T08:52:47;3.10;;;2.10;;
76550;SDS011;65393;53.160;18.170;2023-03-14T08:55:13;4.00;;;2.40;;
76550;SDS011;65393;53.160;18.170;2023-03-14T08:57:40;5.60;;;2.70;;
76550;SDS011;65393;53.160;18.170;2023-03-14T09:00:07;6.40;;;2.80;;
76550;SDS011;65393;53.160;18.170;2023-03-14T09:02:38;6.60;;;3.00;;
76550;SDS011;65393;53.160;18.170;2023-03-14T09:05:05;10.10;;;3.50;;
76550;SDS011;65393;53.160;18.170;2023-03-14T09:07:33;8.70;;;3.20;;
76550;SDS011;65393;53.160;18.170;2023-03-14T09:09:59;5.70;;;2.80;;
76550;SDS011;65393;53.160;18.170;2023-03-14T09:12:26;7.40;;;3.30;;
76550;SDS011;65393;53.160;18.170;2023-03-14T09:14:53;7.80;;;3.50;;
76550;SDS011;65393;53.160;18.170;2023-03-14T09:17:20;8.20;;;2.70;;
76550;SDS011;65393;53.160;18.170;2023-03-14T09:19:47;4.70;;;2.80;;
76550;SDS011;65393;53.160;18.170;2023-03-14T09:22:14;7.10;;;2.80;;
76550;SDS011;65393;53.160;18.170;2023-03-14T09:24:41;5.60;;;3.20;;
76550;SDS011;65393;53.160;18.170;2023-03-14T09:27:08;7.40;;;2.60;;
76550;SDS011;65393;53.160;18.170;2023-03-14T09:29:35;4.40;;;2.90;;
76550;SDS011;65393;53.160;18.170;2023-03-14T09:32:01;3.90;;;2.20;;
76550;SDS011;65393;53.160;18.170;2023-03-14T09:34:28;5.20;;;2.30;;
76550;SDS011;65393;53.160;18.170;2023-03-14T09:36:55;5.40;;;2.80;;
76550;SDS011;65393;53.160;18.170;2023-03-14T09:39:23;3.60;;;2.10;;
76550;SDS011;65393;53.160;18.170;2023-03-14T09:41:50;3.50;;;2.20;;
76550;SDS011;65393;53.160;18.170;2023-03-14T09:44:33;4.30;;;1.90;;
76550;SDS011;65393;53.160;18.170;2023-03-14T09:47:06;5.50;;;1.90;;
76550;SDS011;65393;53.160;18.170;2023-03-14T09:49:37;4.10;;;2.20;;
76550;SDS011;65393;53.160;18.170;2023-03-14T09:52:13;4.70;;;2.20;;
76550;SDS011;65393;53.160;18.170;2023-03-14T09:54:50;2.80;;;2.10;;
76550;SDS011;65393;53.160;18.170;2023-03-14T09:57:23;4.00;;;2.00;;
76550;SDS011;65393;53.160;18.170;2023-03-14T09:59:52;3.50;;;1.70;;
76550;SDS011;65393;53.160;18.170;2023-03-14T10:02:24;3.00;;;1.80;;
76550;SDS011;65393;53.160;18.170;2023-03-14T10:04:53;4.10;;;2.00;;
76550;SDS011;65393;53.160;18.170;2023-03-14T10:07:30;5.50;;;1.80;;
76550;SDS011;65393;53.160;18.170;2023-03-14T10:09:59;2.40;;;1.40;;
76550;SDS011;65393;53.160;18.170;2023-03-14T10:12:33;5.10;;;2.10;;
76550;SDS011;65393;53.160;18.170;2023-03-14T10:15:06;3.70;;;2.00;;
76550;SDS011;65393;53.160;18.170;2023-03-14T10:17:39;4.70;;;2.00;;
76550;SDS011;65393;53.160;18.170;2023-03-14T10:20:25;5.30;;;2.00;;
76550;SDS011;65393;53.160;18.170;2023-03-14T10:22:54;4.90;;;2.30;;
76550;SDS011;65393;53.160;18.170;2023-03-14T10:25:31;3.50;;;1.90;;
76550;SDS011;65393;53.160;18.170;2023-03-14T10:28:02;4.00;;;1.80;;
76550;SDS011;65393;53.160;18.170;2023-03-14T10:30:35;6.60;;;1.60;;
76550;SDS011;65393;53.160;18.170;2023-03-14T10:33:11;3.60;;;1.40;;
76550;SDS011;65393;53.160;18.170;2023-03-14T10:35:45;4.40;;;1.30;;
76550;SDS011;65393;53.160;18.170;2023-03-14T10:38:14;6.00;;;2.10;;
76550;SDS011;65393;53.160;18.170;2023-03-14T10:40:47;4.50;;;1.60;;
76550;SDS011;65393;53.160;18.170;2023-03-14T10:43:17;3.60;;;1.40;;
76550;SDS011;65393;53.160;18.170;2023-03-14T10:45:52;2.90;;;1.40;;
76550;SDS011;65393;53.160;18.170;2023-03-14T10:48:31;4.90;;;1.70;;
76550;SDS011;65393;53.160;18.170;2023-03-14T10:51:05;3.00;;;1.60;;
76550;SDS011;65393;53.160;18.170;2023-03-14T10:53:42;4.60;;;1.50;;
76550;SDS011;65393;53.160;18.170;2023-03-14T10:56:15;2.90;;;1.40;;
76550;SDS011;65393;53.160;18.170;2023-03-14T10:58:46;3.50;;;1.40;;
76550;SDS011;65393;53.160;18.170;2023-03-14T11:01:27;5.10;;;1.60;;
76550;SDS011;65393;53.160;18.170;2023-03-14T11:04:15;1.50;;;1.20;;
76550;SDS011;65393;53.160;18.170;2023-03-14T11:10:14;4.30;;;1.20;;
76550;SDS011;65393;53.160;18.170;2023-03-14T11:16:01;2.80;;;1.10;;
76550;SDS011;65393;53.160;18.170;2023-03-14T11:21:46;2.70;;;1.20;;
76550;SDS011;65393;53.160;18.170;2023-03-14T11:27:17;3.60;;;1.20;;
76550;SDS011;65393;53.160;18.170;2023-03-14T11:38:07;3.60;;;1.60;;
76550;SDS011;65393;53.160;18.170;2023-03-14T11:40:36;4.10;;;1.90;;
76550;SDS011;65393;53.160;18.170;2023-03-14T11:43:09;5.50;;;1.70;;
76550;SDS011;65393;53.160;18.170;2023-03-14T11:45:41;5.90;;;1.50;;
76550;SDS011;65393;53.160;18.170;2023-03-14T11:51:23;4.70;;;1.40;;
76550;SDS011;65393;53.160;18.170;2023-03-14T11:53:57;3.70;;;1.70;;
76550;SDS011;65393;53.160;18.170;2023-03-14T11:56:31;8.80;;;2.50;;
76550;SDS011;65393;53.160;18.170;2023-03-14T11:59:09;4.80;;;2.10;;
76550;SDS011;65393;53.160;18.170;2023-03-14T12:07:20;9.20;;;3.90;;
76550;SDS011;65393;53.160;18.170;2023-03-14T12:10:04;11.90;;;7.60;;
76550;SDS011;65393;53.160;18.170;2023-03-14T12:12:31;6.30;;;2.40;;
76550;SDS011;65393;53.160;18.170;2023-03-14T12:14:59;6.60;;;2.70;;
76550;SDS011;65393;53.160;18.170;2023-03-14T12:17:38;4.30;;;2.80;;
76550;SDS011;65393;53.160;18.170;2023-03-14T12:20:19;8.40;;;3.50;;
76550;SDS011;65393;53.160;18.170;2023-03-14T12:22:52;5.50;;;2.20;;
76550;SDS011;65393;53.160;18.170;2023-03-14T12:25:22;5.40;;;2.40;;
76550;SDS011;65393;53.160;18.170;2023-03-14T12:30:26;18.50;;;6.40;;
76550;SDS011;65393;53.160;18.170;2023-03-14T12:38:03;7.30;;;2.30;;
76550;SDS011;65393;53.160;18.170;2023-03-14T12:40:35;5.80;;;2.20;;
76550;SDS011;65393;53.160;18.170;2023-03-14T12:48:42;11.10;;;4.10;;
76550;SDS011;65393;53.160;18.170;2023-03-14T12:51:15;9.20;;;3.50;;
76550;SDS011;65393;53.160;18.170;2023-03-14T12:53:48;7.60;;;3.20;;
76550;SDS011;65393;53.160;18.170;2023-03-14T12:56:45;7.20;;;2.80;;
76550;SDS011;65393;53.160;18.170;2023-03-14T12:59:35;5.60;;;2.10;;
76550;SDS011;65393;53.160;18.170;2023-03-14T13:04:44;8.80;;;2.70;;
76550;SDS011;65393;53.160;18.170;2023-03-14T13:12:50;5.00;;;2.60;;
76550;SDS011;65393;53.160;18.170;2023-03-14T13:15:31;2.90;;;1.50;;
76550;SDS011;65393;53.160;18.170;2023-03-14T13:18:08;5.30;;;2.10;;
76550;SDS011;65393;53.160;18.170;2023-03-14T13:20:45;5.60;;;2.20;;
76550;SDS011;65393;53.160;18.170;2023-03-14T13:23:27;5.10;;;1.90;;
76550;SDS011;65393;53.160;18.170;2023-03-14T13:25:57;4.00;;;1.90;;
76550;SDS011;65393;53.160;18.170;2023-03-14T13:28:26;10.10;;;2.30;;
76550;SDS011;65393;53.160;18.170;2023-03-14T13:30:55;5.40;;;1.90;;
76550;SDS011;65393;53.160;18.170;2023-03-14T13:33:24;3.30;;;1.70;;
76550;SDS011;65393;53.160;18.170;2023-03-14T13:35:58;6.30;;;3.00;;
76550;SDS011;65393;53.160;18.170;2023-03-14T13:38:29;7.60;;;2.70;;
76550;SDS011;65393;53.160;18.170;2023-03-14T13:40:59;9.40;;;3.60;;
76550;SDS011;65393;53.160;18.170;2023-03-14T13:43:31;7.00;;;3.30;;
76550;SDS011;65393;53.160;18.170;2023-03-14T13:46:04;5.10;;;2.50;;
76550;SDS011;65393;53.160;18.170;2023-03-14T13:48:34;5.00;;;2.30;;
76550;SDS011;65393;53.160;18.170;2023-03-14T13:51:05;7.90;;;2.80;;
76550;SDS011;65393;53.160;18.170;2023-03-14T13:56:21;3.50;;;1.90;;
76550;SDS011;65393;53.160;18.170;2023-03-14T13:58:50;8.70;;;2.00;;
76550;SDS011;65393;53.160;18.170;2023-03-14T14:01:27;5.20;;;2.60;;
76550;SDS011;65393;53.160;18.170;2023-03-14T14:04:06;6.70;;;2.50;;
76550;SDS011;65393;53.160;18.170;2023-03-14T14:06:47;5.70;;;1.90;;
76550;SDS011;65393;53.160;18.170;2023-03-14T14:09:19;3.70;;;1.90;;
76550;SDS011;65393;53.160;18.170;2023-03-14T14:11:56;6.60;;;2.60;;
76550;SDS011;65393;53.160;18.170;2023-03-14T14:15:09;7.90;;;2.60;;
76550;SDS011;65393;53.160;18.170;2023-03-14T14:17:19;9.70;;;3.00;;
76550;SDS011;65393;53.160;18.170;2023-03-14T14:19:49;6.40;;;2.40;;
76550;SDS011;65393;53.160;18.170;2023-03-14T14:22:17;8.50;;;3.10;;
76550;SDS011;65393;53.160;18.170;2023-03-14T14:24:44;6.60;;;2.30;;
76550;SDS011;65393;53.160;18.170;2023-03-14T14:27:16;6.80;;;2.40;;
76550;SDS011;65393;53.160;18.170;2023-03-14T14:29:44;7.90;;;2.90;;
76550;SDS011;65393;53.160;18.170;2023-03-14T14:32:22;8.10;;;2.60;;
76550;SDS011;65393;53.160;18.170;2023-03-14T14:37:30;8.00;;;2.70;;
76550;SDS011;65393;53.160;18.170;2023-03-14T14:40:01;6.50;;;2.70;;
76550;SDS011;65393;53.160;18.170;2023-03-14T14:42:35;9.00;;;2.70;;
76550;SDS011;65393;53.160;18.170;2023-03-14T14:45:07;52.70;;;19.90;;
76550;SDS011;65393;53.160;18.170;2023-03-14T14:47:50;26.90;;;10.90;;
76550;SDS011;65393;53.160;18.170;2023-03-14T14:50:38;6.60;;;2.90;;
76550;SDS011;65393;53.160;18.170;2023-03-14T14:55:56;6.80;;;2.70;;
76550;SDS011;65393;53.160;18.170;2023-03-14T14:58:29;8.40;;;3.10;;
76550;SDS011;65393;53.160;18.170;2023-03-14T15:01:04;9.60;;;2.70;;
76550;SDS011;65393;53.160;18.170;2023-03-14T15:03:37;4.20;;;2.00;;
76550;SDS011;65393;53.160;18.170;2023-03-14T15:06:04;4.60;;;2.50;;
76550;SDS011;65393;53.160;18.170;2023-03-14T15:08:31;7.30;;;2.60;;
76550;SDS011;65393;53.160;18.170;2023-03-14T15:10:58;7.20;;;2.00;;
76550;SDS011;65393;53.160;18.170;2023-03-14T15:13:24;5.30;;;2.50;;
76550;SDS011;65393;53.160;18.170;2023-03-14T15:15:51;9.00;;;2.30;;
76550;SDS011;65393;53.160;18.170;2023-03-14T15:18:25;5.10;;;1.80;;
76550;SDS011;65393;53.160;18.170;2023-03-14T15:20:55;5.20;;;1.90;;
76550;SDS011;65393;53.160;18.170;2023-03-14T15:23:23;6.30;;;2.20;;
76550;SDS011;65393;53.160;18.170;2023-03-14T15:25:51;3.00;;;1.10;;
76550;SDS011;65393;53.160;18.170;2023-03-14T15:28:19;5.40;;;1.40;;
76550;SDS011;65393;53.160;18.170;2023-03-14T15:30:49;3.90;;;1.30;;
76550;SDS011;65393;53.160;18.170;2023-03-14T15:33:17;2.40;;;1.10;;
76550;SDS011;65393;53.160;18.170;2023-03-14T15:35:44;3.80;;;0.90;;
76550;SDS011;65393;53.160;18.170;2023-03-14T15:38:12;6.50;;;1.70;;
76550;SDS011;65393;53.160;18.170;2023-03-14T15:40:41;4.10;;;1.30;;
76550;SDS011;65393;53.160;18.170;2023-03-14T15:43:08;5.20;;;1.50;;
76550;SDS011;65393;53.160;18.170;2023-03-14T15:45:35;6.50;;;1.70;;
76550;SDS011;65393;53.160;18.170;2023-03-14T15:48:02;2.30;;;1.00;;
76550;SDS011;65393;53.160;18.170;2023-03-14T15:50:29;3.80;;;1.30;;
76550;SDS011;65393;53.160;18.170;2023-03-14T15:52:56;4.10;;;1.10;;
76550;SDS011;65393;53.160;18.170;2023-03-14T15:55:23;4.00;;;1.20;;
76550;SDS011;65393;53.160;18.170;2023-03-14T15:57:50;3.50;;;1.00;;
76550;SDS011;65393;53.160;18.170;2023-03-14T16:00:18;8.10;;;2.00;;
76550;SDS011;65393;53.160;18.170;2023-03-14T16:02:48;4.50;;;1.60;;
76550;SDS011;65393;53.160;18.170;2023-03-14T16:05:15;9.20;;;3.50;;